Time;durP1;ratioP1;P1;durP2;ratioP2;P2;SDS_P1;SDS_P2;PMS_P1;PMS_P2;Temp;Humidity;BMP_temperature;BMP_pressure;BME280_temperature;BME280_humidity;BME280_pressure;Samples;Min_cycle;Max_cycle;Signal;HPM_P1;HPM_P2
2022/06/25 00:01:32;;;;;;;13.55;2.55;;;17.90;99.90;;;;;;4934229;29;20480;-78
2022/06/25 00:03:58;;;;;;;11.80;2.20;;;18.00;99.90;;;;;;4934303;29;20099;-78
2022/06/25 00:06:24;;;;;;;15.50;2.33;;;18.00;99.90;;;;;;4934523;29;20501;-78
2022/06/25 00:08:50;;;;;;;11.20;1.90;;;18.00;99.90;;;;;;4934622;29;20056;-78
2022/06/25 00:14:06;;;;;;;14.00;2.45;;;17.90;99.90;;;;;;4934763;29;20405;-77
2022/06/25 00:16:32;;;;;;;15.13;2.63;;;18.00;99.90;;;;;;4934007;29;20024;-77
2022/06/25 00:18:58;;;;;;;13.88;2.25;;;17.90;99.90;;;;;;4934191;29;20463;-77
2022/06/25 00:21:23;;;;;;;10.93;2.40;;;17.90;99.90;;;;;;4934313;29;20188;-77
2022/06/25 00:23:49;;;;;;;16.25;3.00;;;17.90;99.90;;;;;;4933828;29;20102;-77
2022/06/25 00:26:14;;;;;;;12.25;2.88;;;18.00;99.90;;;;;;4933977;29;20047;-77
2022/06/25 00:28:40;;;;;;;14.65;2.33;;;18.00;99.90;;;;;;4933885;29;20036;-77
2022/06/25 00:31:06;;;;;;;13.77;2.75;;;18.00;99.90;;;;;;4933886;29;20059;-78
2022/06/25 00:33:31;;;;;;;16.10;3.45;;;18.00;99.90;;;;;;4933835;29;20027;-78
2022/06/25 00:35:57;;;;;;;19.10;2.63;;;18.00;99.90;;;;;;4934089;29;20016;-77
2022/06/25 00:38:23;;;;;;;15.65;3.05;;;18.00;99.90;;;;;;4933855;29;20036;-78
2022/06/25 00:40:51;;;;;;;11.10;2.20;;;18.00;99.90;;;;;;4933536;29;20055;-78
2022/06/25 00:43:17;;;;;;;14.73;3.05;;;18.00;99.90;;;;;;4933570;29;20027;-78
2022/06/25 00:45:43;;;;;;;16.50;2.92;;;18.00;99.90;;;;;;4933629;29;20555;-79
2022/06/25 00:48:09;;;;;;;12.57;2.17;;;17.90;99.90;;;;;;4933424;29;20386;-81
2022/06/25 00:50:35;;;;;;;14.68;2.30;;;17.90;99.90;;;;;;4933585;29;20050;-81
2022/06/25 00:53:04;;;;;;;16.80;2.80;;;17.90;99.90;;;;;;4933990;29;20062;-81
2022/06/25 00:55:30;;;;;;;18.65;2.80;;;17.80;99.90;;;;;;4933037;29;20115;-81
2022/06/25 00:57:59;;;;;;;10.82;2.42;;;17.70;99.90;;;;;;4932081;29;20095;-81
2022/06/25 01:00:25;;;;;;;16.05;2.50;;;17.80;99.90;;;;;;4933542;29;20020;-81
2022/06/25 01:02:51;;;;;;;15.10;2.83;;;17.70;99.90;;;;;;4933023;29;20038;-79
2022/06/25 01:05:17;;;;;;;12.63;2.13;;;17.70;99.90;;;;;;4933423;29;20035;-79
2022/06/25 01:07:47;;;;;;;19.10;2.78;;;17.60;99.90;;;;;;4933420;29;20036;-79
2022/06/25 01:10:15;;;;;;;13.68;2.10;;;17.60;99.90;;;;;;4933423;29;20405;-79
2022/06/25 01:12:41;;;;;;;18.17;2.60;;;17.60;99.90;;;;;;4933261;29;20045;-79
2022/06/25 01:15:12;;;;;;;14.75;2.08;;;17.60;99.90;;;;;;4933355;29;20047;-78
2022/06/25 01:17:49;;;;;;;13.13;2.40;;;17.70;99.90;;;;;;4933319;29;20038;-78
2022/06/25 01:20:17;;;;;;;17.00;2.85;;;17.90;99.90;;;;;;4933037;29;20497;-78
2022/06/25 01:22:43;;;;;;;15.43;2.50;;;17.90;99.90;;;;;;4933025;29;20026;-78
2022/06/25 01:25:13;;;;;;;11.60;2.20;;;18.00;99.90;;;;;;4932982;29;20027;-78
2022/06/25 01:27:39;;;;;;;17.40;2.97;;;18.10;99.90;;;;;;4927491;29;20469;-78
2022/06/25 01:30:07;;;;;;;22.58;2.70;;;18.10;99.90;;;;;;4933154;29;20174;-77
2022/06/25 01:32:33;;;;;;;15.43;2.55;;;18.20;99.90;;;;;;4927055;29;20396;-78
2022/06/25 01:34:59;;;;;;;14.82;3.03;;;18.10;99.90;;;;;;4927421;29;20034;-78
2022/06/25 01:37:24;;;;;;;11.40;2.53;;;18.10;99.90;;;;;;4933022;29;20032;-78
2022/06/25 01:39:57;;;;;;;15.52;2.50;;;18.10;99.90;;;;;;4932746;29;20019;-77
2022/06/25 01:45:10;;;;;;;15.95;2.90;;;18.20;99.90;;;;;;4929114;29;20062;-77
2022/06/25 01:47:36;;;;;;;17.40;3.30;;;18.20;99.90;;;;;;4931035;29;20075;-77
2022/06/25 01:50:03;;;;;;;17.23;2.30;;;18.30;99.90;;;;;;4932862;29;20477;-78
2022/06/25 01:52:28;;;;;;;17.13;2.47;;;18.20;99.90;;;;;;4932968;29;20023;-78
2022/06/25 01:54:54;;;;;;;18.33;4.03;;;18.30;99.90;;;;;;4932844;29;20563;-78
2022/06/25 01:57:19;;;;;;;11.90;2.22;;;18.10;99.90;;;;;;4933013;29;20098;-78
2022/06/25 01:59:47;;;;;;;16.98;2.75;;;18.10;99.90;;;;;;4932778;29;20036;-79
2022/06/25 02:02:13;;;;;;;20.33;2.85;;;18.10;99.90;;;;;;4932733;29;20016;-79
2022/06/25 02:04:39;;;;;;;15.07;2.40;;;18.10;99.90;;;;;;4932349;29;20127;-80
2022/06/25 02:07:05;;;;;;;20.33;3.20;;;18.00;99.90;;;;;;4935081;29;20107;-80
2022/06/25 02:09:30;;;;;;;13.98;2.60;;;17.90;99.90;;;;;;4930495;29;20079;-81
2022/06/25 02:11:56;;;;;;;18.70;2.78;;;17.90;99.90;;;;;;4936938;29;20079;-80
2022/06/25 02:14:22;;;;;;;17.13;3.08;;;17.80;99.90;;;;;;4936484;29;20536;-79
2022/06/25 02:16:47;;;;;;;15.35;3.03;;;17.70;99.90;;;;;;4936475;29;20405;-79
2022/06/25 02:19:13;;;;;;;23.70;3.55;;;17.60;99.90;;;;;;4936541;29;20035;-79
2022/06/25 02:21:39;;;;;;;16.92;3.22;;;17.50;99.90;;;;;;4936208;29;20038;-79
2022/06/25 02:24:05;;;;;;;15.75;2.70;;;17.50;99.90;;;;;;4936429;29;20040;-79
2022/06/25 02:26:30;;;;;;;16.52;2.63;;;17.50;99.90;;;;;;4935114;29;20105;-79
2022/06/25 02:28:56;;;;;;;10.82;2.55;;;17.50;99.90;;;;;;4936102;29;20039;-80
2022/06/25 02:31:22;;;;;;;17.88;3.60;;;17.50;99.90;;;;;;4936101;29;20382;-80
2022/06/25 02:33:47;;;;;;;15.23;3.30;;;17.40;99.90;;;;;;4936117;29;20412;-81
2022/06/25 02:36:13;;;;;;;19.67;3.42;;;17.30;99.90;;;;;;4936320;29;20456;-81
2022/06/25 02:38:39;;;;;;;15.23;3.30;;;17.30;99.90;;;;;;4936068;29;20035;-81
2022/06/25 02:41:04;;;;;;;17.85;2.60;;;17.40;99.90;;;;;;4936086;29;20615;-81
2022/06/25 02:43:30;;;;;;;14.13;2.72;;;17.40;99.90;;;;;;4935942;29;20050;-81
2022/06/25 02:45:55;;;;;;;15.35;2.70;;;17.40;99.90;;;;;;4935597;29;20504;-79
2022/06/25 02:48:21;;;;;;;20.08;4.30;;;17.20;99.90;;;;;;4935633;29;20067;-79
2022/06/25 02:50:47;;;;;;;19.50;2.85;;;17.30;99.90;;;;;;4935915;29;20031;-79
2022/06/25 02:53:12;;;;;;;17.15;2.97;;;17.30;99.90;;;;;;4935774;29;20027;-78
2022/06/25 03:01:06;;;;;;;14.05;2.50;;;17.00;99.90;;;;;;4935715;29;20043;-79
2022/06/25 03:03:32;;;;;;;15.45;3.05;;;17.00;99.90;;;;;;4935478;29;20039;-79
2022/06/25 03:05:58;;;;;;;12.25;2.72;;;16.90;99.90;;;;;;4935664;29;20024;-78
2022/06/25 03:08:23;;;;;;;17.77;3.30;;;16.90;99.90;;;;;;4935284;29;20488;-79
2022/06/25 03:10:52;;;;;;;13.57;3.40;;;16.90;99.90;;;;;;4934157;29;20107;-78
2022/06/25 03:13:18;;;;;;;12.68;3.10;;;17.00;99.90;;;;;;4935354;29;20052;-78
2022/06/25 03:15:44;;;;;;;14.05;3.35;;;17.00;99.90;;;;;;4935476;29;20104;-80
2022/06/25 03:18:09;;;;;;;17.80;3.20;;;17.00;99.90;;;;;;4934691;29;20111;-79
2022/06/25 03:20:35;;;;;;;11.90;2.90;;;17.00;99.90;;;;;;4935357;29;20468;-79
2022/06/25 03:23:01;;;;;;;15.95;2.88;;;17.00;99.90;;;;;;4935258;29;20031;-79
2022/06/25 03:25:26;;;;;;;13.15;2.92;;;16.90;99.90;;;;;;4935107;29;20019;-79
2022/06/25 03:27:52;;;;;;;15.95;3.50;;;16.90;99.90;;;;;;4935123;29;20528;-79
2022/06/25 03:30:18;;;;;;;13.48;3.15;;;16.90;99.90;;;;;;4935272;29;20508;-80
2022/06/25 03:32:44;;;;;;;13.43;3.67;;;16.90;99.90;;;;;;4935324;29;20066;-80
2022/06/25 03:35:09;;;;;;;13.07;3.47;;;17.00;99.90;;;;;;4935192;29;20032;-80
2022/06/25 03:37:35;;;;;;;16.00;3.60;;;17.10;99.90;;;;;;4935179;29;20189;-79
2022/06/25 03:40:01;;;;;;;13.30;3.85;;;17.00;99.90;;;;;;4935058;29;20500;-78
2022/06/25 03:42:26;;;;;;;15.98;4.25;;;17.00;99.90;;;;;;4934971;29;20039;-79
2022/06/25 03:44:52;;;;;;;25.30;4.43;;;16.90;99.90;;;;;;4928560;29;20044;-78
2022/06/25 03:47:17;;;;;;;21.25;5.43;;;16.80;99.90;;;;;;4933471;29;20078;-79
2022/06/25 03:49:43;;;;;;;12.90;4.40;;;16.70;99.90;;;;;;4934361;29;20176;-78
2022/06/25 03:52:09;;;;;;;12.70;4.45;;;16.70;99.90;;;;;;4934525;29;20155;-78
2022/06/25 03:54:38;;;;;;;17.85;4.95;;;16.80;99.90;;;;;;4934638;29;20024;-79
2022/06/25 03:57:04;;;;;;;30.27;7.50;;;16.80;99.90;;;;;;4934591;29;20035;-80
2022/06/25 03:59:30;;;;;;;18.42;7.85;;;16.70;99.90;;;;;;4934681;29;20035;-80
2022/06/25 04:01:55;;;;;;;16.90;7.22;;;16.60;99.90;;;;;;4934552;29;20039;-80
2022/06/25 04:04:21;;;;;;;20.05;5.03;;;16.70;99.90;;;;;;4934578;29;20042;-80
2022/06/25 04:06:47;;;;;;;13.15;4.10;;;16.50;99.90;;;;;;4934240;29;20106;-80
2022/06/25 04:09:13;;;;;;;16.25;4.60;;;16.40;99.90;;;;;;4934439;29;20032;-79
2022/06/25 04:11:39;;;;;;;19.15;4.68;;;16.20;99.90;;;;;;4934017;29;20028;-80
2022/06/25 04:14:05;;;;;;;18.67;4.68;;;16.20;99.90;;;;;;4934202;29;20535;-80
2022/06/25 04:16:30;;;;;;;12.95;3.70;;;16.20;99.90;;;;;;4934139;29;20399;-79
2022/06/25 04:18:56;;;;;;;16.95;5.53;;;16.30;99.90;;;;;;4934265;29;20452;-79
2022/06/25 04:21:22;;;;;;;25.17;6.78;;;16.30;99.90;;;;;;4934332;29;20079;-80
2022/06/25 04:23:48;;;;;;;26.52;9.98;;;16.20;99.90;;;;;;4933864;29;20031;-80
2022/06/25 04:26:14;;;;;;;21.13;7.88;;;16.20;99.90;;;;;;4934228;29;20074;-80
2022/06/25 04:31:24;;;;;;;18.95;3.63;;;16.30;99.90;;;;;;4933784;29;20063;-79
2022/06/25 04:33:49;;;;;;;11.25;2.97;;;16.30;99.90;;;;;;4932554;29;20031;-78
2022/06/25 04:36:15;;;;;;;14.32;3.10;;;16.20;99.90;;;;;;4933921;29;20028;-78
2022/06/25 04:38:41;;;;;;;17.65;3.70;;;16.10;99.90;;;;;;4933739;29;20032;-78
2022/06/25 04:41:06;;;;;;;15.60;4.38;;;16.20;99.90;;;;;;4933843;29;20032;-78
2022/06/25 04:43:32;;;;;;;14.18;3.30;;;16.30;99.90;;;;;;4933952;29;20047;-79
2022/06/25 04:45:58;;;;;;;13.95;3.90;;;16.30;99.90;;;;;;4933463;29;20024;-78
2022/06/25 04:48:23;;;;;;;12.60;3.72;;;16.40;99.90;;;;;;4933757;29;20062;-79
2022/06/25 04:50:49;;;;;;;15.57;3.60;;;16.30;99.90;;;;;;4933581;29;20484;-79
2022/06/25 04:53:15;;;;;;;11.68;3.50;;;16.30;99.90;;;;;;4932126;29;20046;-79
2022/06/25 04:55:42;;;;;;;12.63;3.05;;;16.10;99.90;;;;;;4933773;29;20042;-79
2022/06/25 04:58:08;;;;;;;11.93;3.55;;;16.20;99.90;;;;;;4933700;29;20101;-78
2022/06/25 05:00:34;;;;;;;13.73;3.47;;;16.30;99.90;;;;;;4933648;29;20086;-78
2022/06/25 05:02:59;;;;;;;14.77;3.90;;;16.30;99.90;;;;;;4933303;29;20396;-78
2022/06/25 05:05:25;;;;;;;13.25;3.40;;;16.30;99.90;;;;;;4933659;29;20035;-78
2022/06/25 05:07:51;;;;;;;14.48;4.97;;;16.30;99.90;;;;;;4933370;29;20063;-78
2022/06/25 05:10:16;;;;;;;12.65;4.40;;;16.30;99.90;;;;;;4933443;29;20444;-78
2022/06/25 05:15:26;;;;;;;7.35;2.60;;;16.30;99.90;;;;;;4933186;29;20078;-77
2022/06/25 05:17:52;;;;;;;11.27;2.45;;;16.40;99.90;;;;;;4933200;29;20123;-78
2022/06/25 05:20:17;;;;;;;8.43;2.72;;;16.30;99.90;;;;;;4933018;29;20066;-78
2022/06/25 05:22:43;;;;;;;14.15;4.45;;;16.30;99.90;;;;;;4933082;29;20514;-78
2022/06/25 05:25:09;;;;;;;12.00;3.50;;;16.20;99.90;;;;;;4929216;29;20437;-77
2022/06/25 05:27:35;;;;;;;7.28;2.90;;;16.10;99.90;;;;;;4933262;29;20386;-78
2022/06/25 05:30:00;;;;;;;9.98;2.60;;;16.00;99.90;;;;;;4933072;29;20043;-78
2022/06/25 05:32:26;;;;;;;6.35;2.10;;;15.90;99.90;;;;;;4932771;29;20019;-78
2022/06/25 05:34:52;;;;;;;8.57;1.70;;;16.00;99.90;;;;;;4932852;29;20196;-78
2022/06/25 05:37:17;;;;;;;4.97;1.35;;;15.90;99.90;;;;;;4932802;29;20039;-78
2022/06/25 05:39:43;;;;;;;7.18;1.90;;;15.90;99.90;;;;;;4933016;29;20441;-79
2022/06/25 05:42:09;;;;;;;8.18;2.30;;;15.80;99.90;;;;;;4932810;29;20034;-80
2022/06/25 05:44:34;;;;;;;12.85;3.60;;;15.80;99.90;;;;;;4931488;29;20062;-78
2022/06/25 05:47:00;;;;;;;12.18;3.75;;;15.80;99.90;;;;;;4932696;29;20023;-79
2022/06/25 05:49:25;;;;;;;8.27;2.90;;;15.80;99.90;;;;;;4932696;29;20063;-79
2022/06/25 05:51:51;;;;;;;9.82;2.60;;;15.80;99.90;;;;;;4932856;29;20106;-82
2022/06/25 05:54:17;;;;;;;5.35;2.42;;;15.70;99.90;;;;;;4932562;29;20039;-82
2022/06/25 05:56:42;;;;;;;10.23;2.40;;;15.50;99.90;;;;;;4932802;29;20023;-82
2022/06/25 05:59:08;;;;;;;7.10;2.00;;;15.50;99.90;;;;;;4932826;29;20169;-82
2022/06/25 06:01:34;;;;;;;6.65;2.67;;;15.60;99.90;;;;;;4932565;29;20016;-83
2022/06/25 06:04:00;;;;;;;6.43;1.85;;;15.60;99.90;;;;;;4933174;29;20047;-83
2022/06/25 06:06:25;;;;;;;6.45;2.08;;;15.70;99.90;;;;;;4932731;29;20459;-82
2022/06/25 06:08:51;;;;;;;8.70;3.58;;;15.60;99.90;;;;;;4932766;29;20032;-83
2022/06/25 06:11:17;;;;;;;9.18;3.60;;;15.60;99.90;;;;;;4932550;29;20023;-83
2022/06/25 06:13:42;;;;;;;11.02;3.60;;;15.60;99.90;;;;;;4930844;29;20032;-83
2022/06/25 06:16:08;;;;;;;11.65;3.60;;;15.60;99.90;;;;;;4933134;29;20106;-83
2022/06/25 06:18:33;;;;;;;9.45;2.90;;;15.60;99.90;;;;;;4932500;29;20027;-83
2022/06/25 06:20:59;;;;;;;9.38;2.65;;;15.60;99.90;;;;;;4931406;29;20034;-85
2022/06/25 06:23:25;;;;;;;7.20;2.00;;;15.70;99.90;;;;;;4943694;29;20039;-85
2022/06/25 06:25:50;;;;;;;8.35;2.03;;;15.70;99.90;;;;;;4942502;29;20091;-84
2022/06/25 06:28:16;;;;;;;10.52;2.80;;;15.80;99.90;;;;;;4943721;29;20024;-84
2022/06/25 06:30:42;;;;;;;6.72;1.85;;;15.80;99.90;;;;;;4943419;29;20334;-84
2022/06/25 06:33:09;;;;;;;6.05;2.38;;;15.80;99.90;;;;;;4943521;29;20318;-85
2022/06/25 06:35:35;;;;;;;6.40;1.92;;;15.80;99.90;;;;;;4943320;29;20015;-85
2022/06/25 06:38:00;;;;;;;11.15;2.22;;;15.90;99.90;;;;;;4943257;29;20023;-84
2022/06/25 06:40:26;;;;;;;7.70;2.28;;;15.90;99.90;;;;;;4942545;29;20012;-83
2022/06/25 06:42:52;;;;;;;9.60;2.90;;;16.00;99.90;;;;;;4943355;29;20311;-83
2022/06/25 06:45:17;;;;;;;9.30;2.20;;;16.10;99.90;;;;;;4943593;29;20192;-84
2022/06/25 06:47:43;;;;;;;6.38;2.03;;;16.10;99.90;;;;;;4943033;29;20023;-85
2022/06/25 06:50:10;;;;;;;10.57;3.15;;;15.90;99.90;;;;;;4943285;29;20043;-84
2022/06/25 06:52:36;;;;;;;10.80;2.45;;;15.80;99.90;;;;;;4942879;29;20091;-85
2022/06/25 06:55:04;;;;;;;12.82;2.50;;;15.80;99.90;;;;;;4946038;29;20035;-85
2022/06/25 06:57:31;;;;;;;9.77;2.10;;;15.90;99.90;;;;;;4946976;29;20184;-84
2022/06/25 06:59:59;;;;;;;7.55;2.10;;;15.90;99.90;;;;;;4946585;29;20095;-84
2022/06/25 07:02:26;;;;;;;6.97;2.15;;;15.80;99.90;;;;;;4946709;29;20028;-84
2022/06/25 07:04:52;;;;;;;9.93;2.53;;;15.90;99.90;;;;;;4946469;29;20102;-85
2022/06/25 07:07:18;;;;;;;11.38;2.70;;;15.90;99.90;;;;;;4945667;29;20023;-85
2022/06/25 07:09:44;;;;;;;13.10;2.53;;;15.90;99.90;;;;;;4946379;29;20326;-85
2022/06/25 07:12:10;;;;;;;9.65;2.60;;;15.90;99.90;;;;;;4946593;29;20031;-85
2022/06/25 07:14:35;;;;;;;10.02;2.60;;;15.80;99.90;;;;;;4944704;29;20047;-84
2022/06/25 07:17:01;;;;;;;8.30;2.35;;;15.80;99.90;;;;;;4946102;29;20027;-84
2022/06/25 07:19:27;;;;;;;13.55;2.97;;;15.60;99.90;;;;;;4946358;29;20086;-84
2022/06/25 07:21:54;;;;;;;8.30;2.20;;;15.70;99.90;;;;;;4946194;29;20038;-84
2022/06/25 07:24:21;;;;;;;7.32;1.95;;;15.70;99.90;;;;;;4945671;29;20512;-84
2022/06/25 07:26:47;;;;;;;5.72;1.60;;;15.60;99.90;;;;;;4945125;29;20043;-84
2022/06/25 07:29:12;;;;;;;6.43;1.90;;;15.50;99.90;;;;;;4945028;29;20034;-84
2022/06/25 07:31:38;;;;;;;8.00;2.65;;;15.40;99.90;;;;;;4943462;29;20047;-80
2022/06/25 07:34:04;;;;;;;10.88;2.30;;;15.40;99.90;;;;;;4940312;29;20328;-81
2022/06/25 07:36:29;;;;;;;9.43;2.13;;;15.50;99.90;;;;;;4944169;29;20024;-83
2022/06/25 07:38:55;;;;;;;8.05;2.30;;;15.50;99.90;;;;;;4945043;29;20267;-80
2022/06/25 07:41:21;;;;;;;13.25;2.83;;;15.50;99.90;;;;;;4943959;29;20023;-81
2022/06/25 07:43:46;;;;;;;13.48;2.70;;;15.60;99.90;;;;;;4944626;29;20039;-80
2022/06/25 07:46:12;;;;;;;9.38;2.42;;;15.60;99.90;;;;;;4944967;29;20023;-80
2022/06/25 07:48:39;;;;;;;6.75;2.20;;;15.60;99.90;;;;;;4945886;29;20047;-79
2022/06/25 07:53:48;;;;;;;7.55;2.20;;;15.50;99.90;;;;;;4945665;29;20023;-79
2022/06/25 07:56:14;;;;;;;6.88;2.40;;;15.50;99.90;;;;;;4945272;29;20028;-79
2022/06/25 07:58:40;;;;;;;8.00;2.47;;;15.50;99.90;;;;;;4945888;29;20090;-77
2022/06/25 08:01:05;;;;;;;8.63;2.30;;;15.70;99.90;;;;;;4945513;29;20034;-78
2022/06/25 08:03:32;;;;;;;6.03;2.13;;;15.90;99.90;;;;;;4944087;29;20370;-79
2022/06/25 08:05:58;;;;;;;7.18;2.33;;;16.10;99.90;;;;;;4945904;29;20023;-81
2022/06/25 08:08:24;;;;;;;7.68;2.33;;;16.30;99.90;;;;;;4944180;29;20041;-78
2022/06/25 08:10:51;;;;;;;5.38;2.28;;;16.40;99.90;;;;;;4944802;29;20019;-77
2022/06/25 08:13:17;;;;;;;10.55;2.70;;;16.50;99.90;;;;;;4945295;29;20034;-77
2022/06/25 08:15:42;;;;;;;7.40;2.35;;;16.50;99.90;;;;;;4944853;29;20327;-77
2022/06/25 08:18:08;;;;;;;4.85;2.25;;;16.40;99.90;;;;;;4945493;29;20220;-78
2022/06/25 08:20:34;;;;;;;6.55;2.42;;;16.40;99.90;;;;;;4945411;29;20012;-77
2022/06/25 08:22:59;;;;;;;8.25;2.65;;;16.40;99.90;;;;;;4942944;29;20468;-77
2022/06/25 08:25:25;;;;;;;7.38;2.50;;;16.40;99.90;;;;;;4945086;29;20031;-78
2022/06/25 08:27:53;;;;;;;9.98;2.55;;;16.40;99.90;;;;;;4945404;29;20015;-80
2022/06/25 08:30:21;;;;;;;8.68;2.33;;;16.50;99.90;;;;;;4943391;29;20117;-79
2022/06/25 08:32:47;;;;;;;6.93;2.50;;;16.50;99.90;;;;;;4944035;29;20070;-78
2022/06/25 08:35:13;;;;;;;8.20;2.05;;;16.70;99.90;;;;;;4944817;29;20330;-78
2022/06/25 08:37:49;;;;;;;4.32;1.90;;;16.50;99.90;;;;;;4943345;29;20023;-79
2022/06/25 08:40:20;;;;;;;4.88;1.88;;;16.60;99.90;;;;;;4943921;29;20035;-78
2022/06/25 08:42:49;;;;;;;7.28;1.95;;;16.60;99.90;;;;;;4941007;29;20146;-77
2022/06/25 08:45:18;;;;;;;8.15;2.30;;;16.60;99.90;;;;;;4943348;29;20043;-78
2022/06/25 08:47:49;;;;;;;4.35;1.70;;;16.40;99.90;;;;;;4942518;29;20015;-77
2022/06/25 08:50:18;;;;;;;11.63;2.55;;;16.50;99.90;;;;;;4944932;29;20062;-80
2022/06/25 08:52:55;;;;;;;8.65;2.47;;;16.40;99.90;;;;;;4944787;29;20080;-80
2022/06/25 08:55:34;;;;;;;4.43;2.40;;;16.50;99.90;;;;;;4944815;29;20039;-81
2022/06/25 08:58:01;;;;;;;8.10;2.55;;;16.60;99.90;;;;;;4936558;29;20028;-81
2022/06/25 09:00:31;;;;;;;6.20;1.88;;;16.70;99.90;;;;;;4944148;29;20051;-81
2022/06/25 09:02:58;;;;;;;3.28;1.65;;;16.80;99.90;;;;;;4933495;29;20028;-81
2022/06/25 09:05:33;;;;;;;7.90;2.38;;;16.80;99.90;;;;;;4944323;29;20427;-85
2022/06/25 09:08:01;;;;;;;4.63;2.00;;;16.90;99.90;;;;;;4944562;29;20020;-81
2022/06/25 09:10:28;;;;;;;6.75;2.05;;;16.80;99.90;;;;;;4944689;29;20099;-79
2022/06/25 09:12:59;;;;;;;5.85;2.03;;;17.00;99.90;;;;;;4938534;29;20079;-79
2022/06/25 09:15:38;;;;;;;4.65;2.25;;;17.10;99.90;;;;;;4943788;29;20091;-78
2022/06/25 09:18:13;;;;;;;5.65;2.30;;;17.00;99.90;;;;;;4944320;29;20039;-79
2022/06/25 09:56:38;;;;;;;5.57;2.05;;;16.70;99.90;;;;;;5124744;27;20619;-83
2022/06/25 09:59:04;;;;;;;5.38;2.38;;;16.50;99.90;;;;;;5118229;28;20433;-81
2022/06/25 10:01:33;;;;;;;7.13;2.40;;;16.20;99.90;;;;;;5117967;28;20023;-81
2022/06/25 10:04:02;;;;;;;10.10;2.42;;;16.10;99.90;;;;;;5111123;28;20244;-78
2022/06/25 10:06:33;;;;;;;9.27;2.50;;;16.30;99.90;;;;;;5111939;28;20474;-77
2022/06/25 10:09:02;;;;;;;5.72;2.00;;;16.60;99.90;;;;;;5111811;28;20016;-78
2022/06/25 10:11:30;;;;;;;6.43;1.98;;;16.70;99.90;;;;;;5118708;28;20054;-78
2022/06/25 10:13:56;;;;;;;7.05;2.00;;;16.70;99.90;;;;;;5118163;28;20114;-78
2022/06/25 10:16:25;;;;;;;6.78;1.85;;;16.40;99.90;;;;;;5116470;28;20215;-78
2022/06/25 10:18:52;;;;;;;9.93;2.33;;;16.50;99.90;;;;;;5117724;28;20058;-77
2022/06/25 10:21:19;;;;;;;6.47;2.30;;;16.60;99.90;;;;;;5118352;28;20028;-77
2022/06/25 10:23:51;;;;;;;7.17;2.07;;;16.30;99.90;;;;;;5111391;28;20035;-76
2022/06/25 10:26:19;;;;;;;9.48;2.38;;;16.20;99.90;;;;;;5112686;28;20416;-77
2022/06/25 10:28:46;;;;;;;11.23;2.60;;;16.20;99.90;;;;;;5118189;28;20222;-76
2022/06/25 10:31:17;;;;;;;19.73;3.63;;;16.10;99.90;;;;;;5117767;28;20269;-76
2022/06/25 10:34:00;;;;;;;8.77;3.15;;;16.00;99.90;;;;;;5118165;28;20027;-76
2022/06/25 10:36:45;;;;;;;7.85;2.97;;;16.00;99.90;;;;;;5116834;28;20294;-76
2022/06/25 10:39:26;;;;;;;12.80;3.55;;;16.00;99.90;;;;;;5117834;28;20218;-76
2022/06/25 10:45:04;;;;;;;9.05;2.58;;;16.20;99.90;;;;;;5116223;28;20050;-77
2022/06/25 10:47:41;;;;;;;9.15;2.58;;;16.50;99.90;;;;;;5117134;28;20090;-77
2022/06/25 10:50:22;;;;;;;7.85;2.53;;;16.50;99.90;;;;;;5105726;28;20027;-77
2022/06/25 10:53:03;;;;;;;8.32;2.58;;;16.80;99.90;;;;;;5120152;28;20077;-78
2022/06/25 10:55:47;;;;;;;7.68;2.53;;;17.00;99.90;;;;;;5103745;28;20040;-77
2022/06/25 10:58:18;;;;;;;9.85;2.72;;;17.00;99.90;;;;;;5103784;28;20039;-77
2022/06/25 11:00:48;;;;;;;7.35;2.33;;;16.80;99.90;;;;;;5102884;28;20083;-78
2022/06/25 11:03:15;;;;;;;8.63;2.75;;;17.00;99.90;;;;;;5097062;28;20024;-76
2022/06/25 11:05:42;;;;;;;8.40;2.42;;;17.10;99.90;;;;;;5103283;28;20042;-76
2022/06/25 11:08:08;;;;;;;12.60;3.10;;;17.50;99.90;;;;;;5103541;28;20091;-75
2022/06/25 11:10:39;;;;;;;9.80;2.13;;;17.80;99.90;;;;;;5103765;28;20095;-75
2022/06/25 11:13:05;;;;;;;9.45;2.03;;;17.90;99.90;;;;;;5103652;28;20334;-75
2022/06/25 11:15:44;;;;;;;7.18;2.28;;;17.90;99.90;;;;;;5102575;28;20122;-75
2022/06/25 11:18:14;;;;;;;8.50;2.53;;;17.90;99.90;;;;;;5102801;28;20019;-75
2022/06/25 11:20:41;;;;;;;8.52;2.42;;;18.10;99.90;;;;;;5102671;28;20383;-76
2022/06/25 11:23:12;;;;;;;12.82;2.88;;;18.30;99.90;;;;;;5101280;28;20106;-75
2022/06/25 11:28:48;;;;;;;6.28;1.90;;;18.10;99.90;;;;;;5102183;28;20232;-76
2022/06/25 11:31:23;;;;;;;9.55;2.20;;;18.20;99.90;;;;;;5102463;28;20113;-75
2022/06/25 11:33:51;;;;;;;8.25;2.30;;;18.10;99.90;;;;;;5102430;28;20087;-75
2022/06/25 11:36:18;;;;;;;7.15;1.88;;;17.90;99.90;;;;;;5102307;28;20362;-75
2022/06/25 11:38:50;;;;;;;8.82;2.15;;;17.70;99.90;;;;;;5102456;28;20374;-74
2022/06/25 11:41:26;;;;;;;7.82;2.22;;;18.10;99.90;;;;;;5102384;28;20024;-74
2022/06/25 11:43:52;;;;;;;8.10;2.28;;;18.50;99.90;;;;;;5096855;28;20008;-74
2022/06/25 11:46:19;;;;;;;9.35;2.30;;;19.00;99.90;;;;;;5102540;28;20368;-74
2022/06/25 11:48:49;;;;;;;10.10;2.90;;;18.80;99.90;;;;;;5102957;28;20019;-74
2022/06/25 11:51:26;;;;;;;7.88;2.45;;;19.00;99.90;;;;;;5096378;28;20304;-74
2022/06/25 11:53:55;;;;;;;7.78;2.10;;;19.00;99.90;;;;;;5097734;28;20039;-74
2022/06/25 11:56:21;;;;;;;6.68;2.13;;;18.90;99.90;;;;;;5103401;28;20044;-74
2022/06/25 11:58:47;;;;;;;5.90;1.98;;;18.90;99.90;;;;;;5102355;28;20027;-74
2022/06/25 12:01:13;;;;;;;6.90;2.10;;;18.60;99.90;;;;;;5102810;28;20212;-74
2022/06/25 12:03:40;;;;;;;5.03;1.70;;;18.60;99.90;;;;;;5102239;28;20020;-74
2022/06/25 12:06:06;;;;;;;5.97;1.88;;;18.60;99.90;;;;;;5102168;28;20039;-74
2022/06/25 12:08:33;;;;;;;9.60;2.00;;;18.40;99.90;;;;;;5101285;28;20070;-73
2022/06/25 12:11:00;;;;;;;6.18;1.88;;;18.20;99.90;;;;;;5095598;28;20027;-75
2022/06/25 12:13:27;;;;;;;7.88;1.85;;;18.20;99.90;;;;;;5095182;28;20289;-76
2022/06/25 12:16:00;;;;;;;6.93;1.52;;;18.10;99.90;;;;;;5101458;28;20028;-75
2022/06/25 12:18:33;;;;;;;5.72;1.90;;;18.00;99.90;;;;;;5095000;28;20095;-75
2022/06/25 12:21:00;;;;;;;6.35;1.65;;;18.10;99.90;;;;;;5100797;28;20303;-75
2022/06/25 12:23:26;;;;;;;6.57;1.73;;;17.90;99.90;;;;;;5100871;28;20342;-75
2022/06/25 12:25:51;;;;;;;7.40;2.20;;;18.10;99.90;;;;;;5100694;28;20048;-75
2022/06/25 12:28:34;;;;;;;9.77;2.08;;;18.20;99.90;;;;;;5101062;28;20031;-75
2022/06/25 12:31:15;;;;;;;10.15;2.40;;;18.20;99.90;;;;;;5101275;28;20027;-78
2022/06/25 12:33:50;;;;;;;10.02;2.40;;;18.40;99.90;;;;;;5102027;28;20020;-72
2022/06/25 12:36:19;;;;;;;10.75;2.53;;;18.30;99.90;;;;;;5100925;28;20227;-76
2022/06/25 12:38:45;;;;;;;4.88;1.88;;;18.40;99.90;;;;;;5102008;28;20027;-77
2022/06/25 12:41:11;;;;;;;6.32;2.08;;;18.50;99.90;;;;;;5101363;28;20027;-76
2022/06/25 12:43:45;;;;;;;7.40;2.20;;;18.40;99.90;;;;;;5102231;28;20189;-75
2022/06/25 12:46:11;;;;;;;7.15;2.08;;;18.20;99.90;;;;;;5101198;28;20039;-74
2022/06/25 12:48:37;;;;;;;9.38;1.80;;;18.30;99.90;;;;;;5101939;28;20016;-75
2022/06/25 12:51:11;;;;;;;6.75;2.10;;;18.10;99.90;;;;;;5101066;28;20241;-77
2022/06/25 12:53:38;;;;;;;7.25;2.00;;;18.10;99.90;;;;;;5100704;28;20087;-75
2022/06/25 12:56:04;;;;;;;8.18;1.77;;;18.10;99.90;;;;;;5101807;28;20369;-74
2022/06/25 12:58:41;;;;;;;4.78;1.73;;;18.00;99.90;;;;;;5100830;28;20472;-75
2022/06/25 13:01:21;;;;;;;5.70;1.77;;;17.90;99.90;;;;;;5100802;28;20067;-75
2022/06/25 13:03:46;;;;;;;5.72;2.25;;;18.00;99.90;;;;;;5095740;28;20023;-74
2022/06/25 13:06:13;;;;;;;4.90;2.22;;;18.30;99.90;;;;;;5100402;28;20334;-74
2022/06/25 13:08:38;;;;;;;6.00;2.05;;;18.20;99.90;;;;;;5101366;28;20104;-74
2022/06/25 13:11:04;;;;;;;7.18;2.15;;;18.20;99.90;;;;;;5100962;28;20328;-76
2022/06/25 13:13:31;;;;;;;6.97;2.00;;;18.20;99.90;;;;;;5102014;28;20046;-75
2022/06/25 13:15:59;;;;;;;6.57;1.83;;;18.30;99.90;;;;;;5101312;28;20066;-75
2022/06/25 13:18:25;;;;;;;7.63;1.90;;;18.20;99.90;;;;;;5093889;28;20050;-76
2022/06/25 13:20:51;;;;;;;7.90;2.10;;;18.10;99.90;;;;;;5098683;28;20024;-83
2022/06/25 13:23:16;;;;;;;5.55;1.90;;;18.10;99.90;;;;;;5101460;28;20303;-81
2022/06/25 13:25:42;;;;;;;7.13;1.98;;;18.00;99.90;;;;;;5101539;28;20042;-83
2022/06/25 13:28:08;;;;;;;5.85;2.30;;;17.80;99.90;;;;;;5100648;28;20050;-83
2022/06/25 13:30:34;;;;;;;5.82;1.90;;;17.90;99.90;;;;;;5099536;28;20315;-83
2022/06/25 13:32:59;;;;;;;11.60;2.45;;;17.90;99.90;;;;;;5099324;28;20372;-83
2022/06/25 13:35:25;;;;;;;5.90;1.90;;;18.10;99.90;;;;;;5097070;28;20081;-83
2022/06/25 13:37:50;;;;;;;9.93;1.90;;;18.00;99.90;;;;;;5098394;28;20028;-83
2022/06/25 13:40:16;;;;;;;5.32;1.90;;;18.10;99.90;;;;;;5095123;28;20085;-83
2022/06/25 13:42:42;;;;;;;7.70;2.00;;;18.40;99.90;;;;;;5088240;28;20227;-83